sensor_id;sensor_type;location;lat;lon;timestamp;pressure;altitude;pressure_sealevel;temperature;humidity
5651;BME280;40241;52.684;9.758;2022-10-15T00:00:34;100482.44;;;18.27;64.56
5651;BME280;40241;52.684;9.758;2022-10-15T00:03:00;100465.75;;;18.27;64.32
5651;BME280;40241;52.684;9.758;2022-10-15T00:05:25;100469.28;;;18.27;64.32
5651;BME280;40241;52.684;9.758;2022-10-15T00:07:51;100460.72;;;18.25;64.36
5651;BME280;40241;52.684;9.758;2022-10-15T00:10:16;100473.34;;;18.26;64.37
5651;BME280;40241;52.684;9.758;2022-10-15T00:12:42;100468.88;;;18.23;64.16
5651;BME280;40241;52.684;9.758;2022-10-15T00:15:09;100470.16;;;18.22;64.45
5651;BME280;40241;52.684;9.758;2022-10-15T00:17:35;100464.97;;;18.19;64.36
5651;BME280;40241;52.684;9.758;2022-10-15T00:20:02;100476.09;;;18.19;64.45
5651;BME280;40241;52.684;9.758;2022-10-15T00:22:27;100474.41;;;18.16;64.37
5651;BME280;40241;52.684;9.758;2022-10-15T00:24:53;100474.22;;;18.14;64.38
5651;BME280;40241;52.684;9.758;2022-10-15T00:27:18;100476.81;;;18.12;64.48
5651;BME280;40241;52.684;9.758;2022-10-15T00:29:43;100479.59;;;18.12;64.47
5651;BME280;40241;52.684;9.758;2022-10-15T00:32:08;100481.44;;;18.09;64.38
5651;BME280;40241;52.684;9.758;2022-10-15T00:34:34;100480.47;;;18.07;64.34
5651;BME280;40241;52.684;9.758;2022-10-15T00:36:59;100481.03;;;18.05;64.48
5651;BME280;40241;52.684;9.758;2022-10-15T00:39:25;100478.44;;;18.00;64.32
5651;BME280;40241;52.684;9.758;2022-10-15T00:41:50;100475.97;;;17.96;64.51
5651;BME280;40241;52.684;9.758;2022-10-15T00:46:51;100471.47;;;17.85;64.30
5651;BME280;40241;52.684;9.758;2022-10-15T00:49:24;100482.41;;;17.83;64.26
5651;BME280;40241;52.684;9.758;2022-10-15T00:51:56;100483.47;;;17.80;64.34
5651;BME280;40241;52.684;9.758;2022-10-15T00:54:24;100486.41;;;17.75;64.26
5651;BME280;40241;52.684;9.758;2022-10-15T00:56:53;100483.97;;;17.71;64.24
5651;BME280;40241;52.684;9.758;2022-10-15T00:59:22;100479.13;;;17.64;64.29
5651;BME280;40241;52.684;9.758;2022-10-15T01:01:49;100489.09;;;17.60;64.21
5651;BME280;40241;52.684;9.758;2022-10-15T01:04:15;100482.59;;;17.57;64.32
5651;BME280;40241;52.684;9.758;2022-10-15T01:06:43;100480.16;;;17.54;64.24
5651;BME280;40241;52.684;9.758;2022-10-15T01:09:09;100486.03;;;17.50;64.25
5651;BME280;40241;52.684;9.758;2022-10-15T01:14:39;100493.75;;;17.44;64.29
5651;BME280;40241;52.684;9.758;2022-10-15T01:17:04;100488.88;;;17.37;64.18
5651;BME280;40241;52.684;9.758;2022-10-15T01:20:33;100481.75;;;17.29;63.98
5651;BME280;40241;52.684;9.758;2022-10-15T01:27:33;100478.84;;;17.13;64.05
5651;BME280;40241;52.684;9.758;2022-10-15T01:30:22;100472.69;;;17.07;63.99
5651;BME280;40241;52.684;9.758;2022-10-15T01:35:30;100471.63;;;16.97;64.20
5651;BME280;40241;52.684;9.758;2022-10-15T01:40:36;100475.44;;;16.87;64.09
5651;BME280;40241;52.684;9.758;2022-10-15T01:43:07;100463.91;;;16.83;64.11
5651;BME280;40241;52.684;9.758;2022-10-15T01:45:39;100468.84;;;16.77;64.09
5651;BME280;40241;52.684;9.758;2022-10-15T01:48:09;100464.16;;;16.72;64.09
5651;BME280;40241;52.684;9.758;2022-10-15T01:50:41;100467.06;;;16.66;64.09
5651;BME280;40241;52.684;9.758;2022-10-15T01:53:10;100465.34;;;16.63;64.18
5651;BME280;40241;52.684;9.758;2022-10-15T01:55:36;100465.69;;;16.60;64.06
5651;BME280;40241;52.684;9.758;2022-10-15T01:58:07;100471.34;;;16.54;64.07
5651;BME280;40241;52.684;9.758;2022-10-15T02:00:34;100477.25;;;16.51;63.95
5651;BME280;40241;52.684;9.758;2022-10-15T02:03:00;100475.31;;;16.45;64.00
5651;BME280;40241;52.684;9.758;2022-10-15T02:05:30;100467.84;;;16.40;63.93
5651;BME280;40241;52.684;9.758;2022-10-15T02:08:06;100462.63;;;16.37;64.05
5651;BME280;40241;52.684;9.758;2022-10-15T02:10:54;100464.00;;;16.30;63.84
5651;BME280;40241;52.684;9.758;2022-10-15T02:13:49;100457.09;;;16.24;63.77
5651;BME280;40241;52.684;9.758;2022-10-15T02:16:26;100455.38;;;16.21;63.94
5651;BME280;40241;52.684;9.758;2022-10-15T02:21:52;100451.34;;;16.09;63.80
5651;BME280;40241;52.684;9.758;2022-10-15T02:24:31;100447.41;;;16.04;63.87
5651;BME280;40241;52.684;9.758;2022-10-15T02:27:00;100449.00;;;16.00;64.02
5651;BME280;40241;52.684;9.758;2022-10-15T02:29:30;100445.81;;;15.96;63.89
5651;BME280;40241;52.684;9.758;2022-10-15T02:31:57;100451.69;;;15.92;63.99
5651;BME280;40241;52.684;9.758;2022-10-15T02:34:27;100436.84;;;15.90;63.96
5651;BME280;40241;52.684;9.758;2022-10-15T02:36:56;100436.44;;;15.86;64.03
5651;BME280;40241;52.684;9.758;2022-10-15T02:39:23;100440.25;;;15.83;63.92
5651;BME280;40241;52.684;9.758;2022-10-15T02:41:50;100440.34;;;15.77;63.78
5651;BME280;40241;52.684;9.758;2022-10-15T02:44:16;100437.16;;;15.73;63.83
5651;BME280;40241;52.684;9.758;2022-10-15T02:46:42;100441.53;;;15.68;63.89
5651;BME280;40241;52.684;9.758;2022-10-15T02:49:07;100444.84;;;15.67;64.03
5651;BME280;40241;52.684;9.758;2022-10-15T02:51:34;100438.31;;;15.64;63.78
5651;BME280;40241;52.684;9.758;2022-10-15T02:54:00;100434.16;;;15.58;63.76
5651;BME280;40241;52.684;9.758;2022-10-15T02:56:26;100429.69;;;15.55;63.77
5651;BME280;40241;52.684;9.758;2022-10-15T02:58:52;100432.00;;;15.51;63.72
5651;BME280;40241;52.684;9.758;2022-10-15T03:01:17;100438.63;;;15.48;63.83
5651;BME280;40241;52.684;9.758;2022-10-15T03:03:43;100441.72;;;15.44;63.78
5651;BME280;40241;52.684;9.758;2022-10-15T03:06:08;100443.25;;;15.40;63.84
5651;BME280;40241;52.684;9.758;2022-10-15T03:08:33;100441.56;;;15.37;63.88
5651;BME280;40241;52.684;9.758;2022-10-15T03:10:59;100441.88;;;15.33;63.78
5651;BME280;40241;52.684;9.758;2022-10-15T03:13:25;100447.75;;;15.30;63.63
5651;BME280;40241;52.684;9.758;2022-10-15T03:15:51;100443.03;;;15.25;63.83
5651;BME280;40241;52.684;9.758;2022-10-15T03:18:16;100450.41;;;15.22;63.81
5651;BME280;40241;52.684;9.758;2022-10-15T03:20:41;100446.66;;;15.20;63.69
5651;BME280;40241;52.684;9.758;2022-10-15T03:23:07;100448.69;;;15.19;63.81
5651;BME280;40241;52.684;9.758;2022-10-15T03:25:32;100450.91;;;15.21;63.83
5651;BME280;40241;52.684;9.758;2022-10-15T03:27:57;100446.13;;;15.21;63.77
5651;BME280;40241;52.684;9.758;2022-10-15T03:30:23;100442.38;;;15.19;63.77
5651;BME280;40241;52.684;9.758;2022-10-15T03:32:48;100449.44;;;15.20;63.98
5651;BME280;40241;52.684;9.758;2022-10-15T03:35:13;100469.03;;;15.22;64.13
5651;BME280;40241;52.684;9.758;2022-10-15T03:37:39;100446.00;;;15.27;64.08
5651;BME280;40241;52.684;9.758;2022-10-15T03:40:04;100444.44;;;15.31;64.09
5651;BME280;40241;52.684;9.758;2022-10-15T03:42:30;100443.38;;;15.34;64.05
5651;BME280;40241;52.684;9.758;2022-10-15T03:44:55;100444.13;;;15.35;63.98
5651;BME280;40241;52.684;9.758;2022-10-15T03:47:20;100442.63;;;15.34;64.08
5651;BME280;40241;52.684;9.758;2022-10-15T03:49:46;100451.91;;;15.36;64.14
5651;BME280;40241;52.684;9.758;2022-10-15T03:52:12;100440.50;;;15.40;64.23
5651;BME280;40241;52.684;9.758;2022-10-15T03:54:37;100437.88;;;15.47;64.38
5651;BME280;40241;52.684;9.758;2022-10-15T03:57:03;100442.81;;;15.54;64.53
5651;BME280;40241;52.684;9.758;2022-10-15T03:59:28;100442.69;;;15.60;64.45
5651;BME280;40241;52.684;9.758;2022-10-15T04:01:53;100448.66;;;15.64;64.55
5651;BME280;40241;52.684;9.758;2022-10-15T04:04:19;100447.59;;;15.67;64.53
5651;BME280;40241;52.684;9.758;2022-10-15T04:06:44;100448.16;;;15.65;64.63
5651;BME280;40241;52.684;9.758;2022-10-15T04:09:12;100444.09;;;15.66;64.74
5651;BME280;40241;52.684;9.758;2022-10-15T04:11:38;100446.56;;;15.70;64.74
5651;BME280;40241;52.684;9.758;2022-10-15T04:14:04;100449.53;;;15.72;64.76
5651;BME280;40241;52.684;9.758;2022-10-15T04:16:29;100452.53;;;15.74;64.73
5651;BME280;40241;52.684;9.758;2022-10-15T04:18:54;100446.84;;;15.80;64.83
5651;BME280;40241;52.684;9.758;2022-10-15T04:21:21;100447.06;;;15.82;64.87
5651;BME280;40241;52.684;9.758;2022-10-15T04:23:47;100451.91;;;15.81;64.97
5651;BME280;40241;52.684;9.758;2022-10-15T04:26:12;100448.38;;;15.81;64.97
5651;BME280;40241;52.684;9.758;2022-10-15T04:28:37;100452.09;;;15.83;65.01
5651;BME280;40241;52.684;9.758;2022-10-15T04:31:03;100451.03;;;15.86;65.02
5651;BME280;40241;52.684;9.758;2022-10-15T04:33:28;100455.50;;;15.89;64.98
5651;BME280;40241;52.684;9.758;2022-10-15T04:36:01;100452.94;;;15.91;65.20
5651;BME280;40241;52.684;9.758;2022-10-15T04:38:27;100451.44;;;15.90;65.09
5651;BME280;40241;52.684;9.758;2022-10-15T04:43:24;100462.78;;;15.92;65.19
5651;BME280;40241;52.684;9.758;2022-10-15T04:45:50;100461.47;;;15.93;65.25
5651;BME280;40241;52.684;9.758;2022-10-15T04:48:15;100462.78;;;15.92;65.25
5651;BME280;40241;52.684;9.758;2022-10-15T04:50:40;100464.25;;;15.93;65.33
5651;BME280;40241;52.684;9.758;2022-10-15T04:53:05;100451.13;;;15.94;65.30
5651;BME280;40241;52.684;9.758;2022-10-15T04:55:31;100469.47;;;15.97;65.23
5651;BME280;40241;52.684;9.758;2022-10-15T04:57:56;100461.59;;;16.01;65.34
5651;BME280;40241;52.684;9.758;2022-10-15T05:00:21;100460.50;;;16.04;65.29
5651;BME280;40241;52.684;9.758;2022-10-15T05:02:47;100455.19;;;16.06;65.28
5651;BME280;40241;52.684;9.758;2022-10-15T05:05:12;100457.44;;;16.07;65.27
5651;BME280;40241;52.684;9.758;2022-10-15T05:07:37;100460.41;;;16.09;65.34
5651;BME280;40241;52.684;9.758;2022-10-15T05:10:03;100460.09;;;16.13;65.32
5651;BME280;40241;52.684;9.758;2022-10-15T05:12:28;100463.06;;;16.15;65.27
5651;BME280;40241;52.684;9.758;2022-10-15T05:14:54;100467.34;;;16.16;65.31
5651;BME280;40241;52.684;9.758;2022-10-15T05:17:20;100473.13;;;16.18;65.27
5651;BME280;40241;52.684;9.758;2022-10-15T05:19:45;100464.78;;;16.18;65.25
5651;BME280;40241;52.684;9.758;2022-10-15T05:22:10;100465.00;;;16.20;65.06
5651;BME280;40241;52.684;9.758;2022-10-15T05:24:35;100465.75;;;16.20;65.17
5651;BME280;40241;52.684;9.758;2022-10-15T05:27:01;100466.47;;;16.21;65.30
5651;BME280;40241;52.684;9.758;2022-10-15T05:29:26;100469.47;;;16.23;65.24
5651;BME280;40241;52.684;9.758;2022-10-15T05:31:52;100473.00;;;16.23;65.32
5651;BME280;40241;52.684;9.758;2022-10-15T05:34:17;100474.50;;;16.24;65.49
5651;BME280;40241;52.684;9.758;2022-10-15T05:36:42;100474.50;;;16.24;65.39
5651;BME280;40241;52.684;9.758;2022-10-15T05:39:08;100477.28;;;16.24;65.38
5651;BME280;40241;52.684;9.758;2022-10-15T05:41:35;100478.53;;;16.23;65.38
5651;BME280;40241;52.684;9.758;2022-10-15T05:44:00;100475.00;;;16.23;65.42
5651;BME280;40241;52.684;9.758;2022-10-15T05:46:26;100477.06;;;16.22;65.36
5651;BME280;40241;52.684;9.758;2022-10-15T05:48:54;100480.34;;;16.21;65.36
5651;BME280;40241;52.684;9.758;2022-10-15T05:51:21;100479.41;;;16.18;65.44
5651;BME280;40241;52.684;9.758;2022-10-15T05:53:46;100479.41;;;16.18;65.48
5651;BME280;40241;52.684;9.758;2022-10-15T05:56:13;100483.47;;;16.17;65.54
5651;BME280;40241;52.684;9.758;2022-10-15T05:58:39;100477.16;;;16.17;65.52
5651;BME280;40241;52.684;9.758;2022-10-15T06:01:08;100476.41;;;16.16;65.42
5651;BME280;40241;52.684;9.758;2022-10-15T06:03:33;100479.19;;;16.16;65.53
5651;BME280;40241;52.684;9.758;2022-10-15T06:05:59;100471.94;;;16.13;65.41
5651;BME280;40241;52.684;9.758;2022-10-15T06:08:26;100469.72;;;16.12;65.40
5651;BME280;40241;52.684;9.758;2022-10-15T06:10:51;100470.97;;;16.11;65.46
5651;BME280;40241;52.684;9.758;2022-10-15T06:13:17;100477.06;;;16.09;65.54
5651;BME280;40241;52.684;9.758;2022-10-15T06:15:43;100477.59;;;16.08;65.55
5651;BME280;40241;52.684;9.758;2022-10-15T06:18:10;100484.22;;;16.05;65.49
5651;BME280;40241;52.684;9.758;2022-10-15T06:20:36;100485.50;;;16.04;65.48
5651;BME280;40241;52.684;9.758;2022-10-15T06:23:03;100487.31;;;16.01;65.55
5651;BME280;40241;52.684;9.758;2022-10-15T06:25:29;100505.47;;;16.02;65.51
5651;BME280;40241;52.684;9.758;2022-10-15T06:27:54;100501.72;;;16.00;65.56
5651;BME280;40241;52.684;9.758;2022-10-15T06:30:19;100509.06;;;15.97;65.42
5651;BME280;40241;52.684;9.758;2022-10-15T06:32:48;100507.59;;;15.96;65.47
5651;BME280;40241;52.684;9.758;2022-10-15T06:35:14;100511.44;;;15.93;65.57
5651;BME280;40241;52.684;9.758;2022-10-15T06:37:40;100512.72;;;15.92;65.51
5651;BME280;40241;52.684;9.758;2022-10-15T06:40:06;100512.72;;;15.92;65.51
5651;BME280;40241;52.684;9.758;2022-10-15T06:42:31;100516.75;;;15.91;65.44
5651;BME280;40241;52.684;9.758;2022-10-15T06:44:56;100519.53;;;15.91;65.56
5651;BME280;40241;52.684;9.758;2022-10-15T06:47:22;100521.56;;;15.91;65.59
5651;BME280;40241;52.684;9.758;2022-10-15T06:49:47;100519.00;;;15.93;65.49
5651;BME280;40241;52.684;9.758;2022-10-15T06:52:13;100520.50;;;15.94;65.51
5651;BME280;40241;52.684;9.758;2022-10-15T06:54:38;100529.59;;;15.94;65.51
5651;BME280;40241;52.684;9.758;2022-10-15T06:57:03;100528.28;;;15.95;65.47
5651;BME280;40241;52.684;9.758;2022-10-15T06:59:28;100524.03;;;15.94;65.52
5651;BME280;40241;52.684;9.758;2022-10-15T07:01:54;100527.03;;;15.96;65.62
5651;BME280;40241;52.684;9.758;2022-10-15T07:04:21;100533.53;;;15.99;65.51
5651;BME280;40241;52.684;9.758;2022-10-15T07:06:47;100534.47;;;16.01;65.46
5651;BME280;40241;52.684;9.758;2022-10-15T07:09:12;100535.97;;;16.02;65.61
5651;BME280;40241;52.684;9.758;2022-10-15T07:11:38;100535.44;;;16.04;65.55
5651;BME280;40241;52.684;9.758;2022-10-15T07:14:03;100544.72;;;16.06;65.56
5651;BME280;40241;52.684;9.758;2022-10-15T07:16:28;100546.25;;;16.07;65.55
5651;BME280;40241;52.684;9.758;2022-10-15T07:18:54;100549.22;;;16.09;65.59
5651;BME280;40241;52.684;9.758;2022-10-15T07:21:19;100557.00;;;16.11;65.46
5651;BME280;40241;52.684;9.758;2022-10-15T07:23:44;100561.06;;;16.10;65.51
5651;BME280;40241;52.684;9.758;2022-10-15T07:26:10;100556.25;;;16.10;65.50
5651;BME280;40241;52.684;9.758;2022-10-15T07:28:36;100553.69;;;16.12;65.51
5651;BME280;40241;52.684;9.758;2022-10-15T07:31:04;100548.34;;;16.14;65.58
5651;BME280;40241;52.684;9.758;2022-10-15T07:33:30;100547.50;;;16.19;65.54
5651;BME280;40241;52.684;9.758;2022-10-15T07:36:00;100551.47;;;16.24;65.53
5651;BME280;40241;52.684;9.758;2022-10-15T07:38:26;100556.91;;;16.29;65.45
5651;BME280;40241;52.684;9.758;2022-10-15T07:40:51;100557.88;;;16.32;65.48
5651;BME280;40241;52.684;9.758;2022-10-15T07:43:16;100555.31;;;16.34;65.51
5651;BME280;40241;52.684;9.758;2022-10-15T07:45:46;100551.13;;;16.40;65.68
5651;BME280;40241;52.684;9.758;2022-10-15T07:48:12;100552.84;;;16.43;65.45
5651;BME280;40241;52.684;9.758;2022-10-15T07:50:37;100550.28;;;16.45;65.47
5651;BME280;40241;52.684;9.758;2022-10-15T07:53:02;100553.28;;;16.47;65.41
5651;BME280;40241;52.684;9.758;2022-10-15T07:55:28;100551.69;;;16.52;65.38
5651;BME280;40241;52.684;9.758;2022-10-15T07:57:56;100548.81;;;16.58;65.35
5651;BME280;40241;52.684;9.758;2022-10-15T08:00:22;100544.94;;;16.61;65.21
5651;BME280;40241;52.684;9.758;2022-10-15T08:02:47;100546.13;;;16.65;65.43
5651;BME280;40241;52.684;9.758;2022-10-15T08:05:13;100545.47;;;16.72;65.33
5651;BME280;40241;52.684;9.758;2022-10-15T08:07:38;100551.34;;;16.82;65.38
5651;BME280;40241;52.684;9.758;2022-10-15T08:10:06;100545.31;;;16.91;65.24
5651;BME280;40241;52.684;9.758;2022-10-15T08:12:32;100551.16;;;17.00;65.21
5651;BME280;40241;52.684;9.758;2022-10-15T08:14:57;100557.34;;;17.06;65.14
5651;BME280;40241;52.684;9.758;2022-10-15T08:17:22;100552.00;;;17.08;64.99
5651;BME280;40241;52.684;9.758;2022-10-15T08:19:47;100546.84;;;17.12;64.99
5651;BME280;40241;52.684;9.758;2022-10-15T08:22:13;100545.22;;;17.17;65.20
5651;BME280;40241;52.684;9.758;2022-10-15T08:24:38;100544.34;;;17.22;65.11
5651;BME280;40241;52.684;9.758;2022-10-15T08:27:03;100534.59;;;17.29;64.99
5651;BME280;40241;52.684;9.758;2022-10-15T08:29:29;100532.09;;;17.38;64.94
5651;BME280;40241;52.684;9.758;2022-10-15T08:31:54;100532.69;;;17.44;64.70
5651;BME280;40241;52.684;9.758;2022-10-15T08:34:19;100534.94;;;17.46;64.94
5651;BME280;40241;52.684;9.758;2022-10-15T08:36:45;100531.41;;;17.45;65.11
5651;BME280;40241;52.684;9.758;2022-10-15T08:39:10;100530.88;;;17.47;64.70
5651;BME280;40241;52.684;9.758;2022-10-15T08:41:39;100534.19;;;17.45;64.68
5651;BME280;40241;52.684;9.758;2022-10-15T08:47:05;100536.72;;;17.56;64.76
5651;BME280;40241;52.684;9.758;2022-10-15T08:50:11;100538.81;;;17.63;64.82
5651;BME280;40241;52.684;9.758;2022-10-15T08:52:46;100543.50;;;17.68;64.54
5651;BME280;40241;52.684;9.758;2022-10-15T08:55:16;100543.34;;;17.74;64.50
5651;BME280;40241;52.684;9.758;2022-10-15T09:06:34;100536.38;;;18.09;64.45
5651;BME280;40241;52.684;9.758;2022-10-15T09:09:07;100551.28;;;18.19;64.18
5651;BME280;40241;52.684;9.758;2022-10-15T09:14:14;100546.69;;;18.29;63.95
5651;BME280;40241;52.684;9.758;2022-10-15T09:16:42;100551.19;;;18.32;64.01
5651;BME280;40241;52.684;9.758;2022-10-15T09:19:16;100548.97;;;18.38;63.68
5651;BME280;40241;52.684;9.758;2022-10-15T09:21:42;100543.81;;;18.42;63.77
5651;BME280;40241;52.684;9.758;2022-10-15T09:24:11;100547.00;;;18.46;63.80
5651;BME280;40241;52.684;9.758;2022-10-15T09:26:50;100549.66;;;18.51;63.36
5651;BME280;40241;52.684;9.758;2022-10-15T09:32:29;100541.72;;;18.63;62.48
5651;BME280;40241;52.684;9.758;2022-10-15T09:35:03;100540.97;;;18.70;62.99
5651;BME280;40241;52.684;9.758;2022-10-15T09:37:51;100541.19;;;18.72;62.36
5651;BME280;40241;52.684;9.758;2022-10-15T09:42:56;100546.59;;;18.78;62.63
5651;BME280;40241;52.684;9.758;2022-10-15T09:45:23;100541.41;;;18.82;62.85
5651;BME280;40241;52.684;9.758;2022-10-15T09:47:49;100538.66;;;18.89;62.76
5651;BME280;40241;52.684;9.758;2022-10-15T09:50:14;100542.00;;;18.95;62.85
5651;BME280;40241;52.684;9.758;2022-10-15T09:57:52;100538.69;;;19.04;62.25
5651;BME280;40241;52.684;9.758;2022-10-15T10:00:19;100541.88;;;19.08;62.47
5651;BME280;40241;52.684;9.758;2022-10-15T10:03:06;100546.50;;;19.13;61.86
5651;BME280;40241;52.684;9.758;2022-10-15T10:05:35;100543.56;;;19.19;61.88
5651;BME280;40241;52.684;9.758;2022-10-15T10:08:08;100548.22;;;19.31;61.66
5651;BME280;40241;52.684;9.758;2022-10-15T10:10:35;100545.28;;;19.37;61.91
5651;BME280;40241;52.684;9.758;2022-10-15T10:13:01;100543.06;;;19.43;62.12
5651;BME280;40241;52.684;9.758;2022-10-15T10:15:39;100551.63;;;19.53;61.69
5651;BME280;40241;52.684;9.758;2022-10-15T10:18:17;100541.03;;;19.59;61.31
5651;BME280;40241;52.684;9.758;2022-10-15T10:20:59;100540.28;;;19.66;61.18
5651;BME280;40241;52.684;9.758;2022-10-15T10:23:43;100539.72;;;19.67;61.00
5651;BME280;40241;52.684;9.758;2022-10-15T10:26:09;100540.09;;;19.71;61.47
5651;BME280;40241;52.684;9.758;2022-10-15T10:28:55;100535.06;;;19.70;60.22
5651;BME280;40241;52.684;9.758;2022-10-15T10:31:29;100543.44;;;19.70;61.16
5651;BME280;40241;52.684;9.758;2022-10-15T10:33:59;100534.50;;;19.71;61.32
5651;BME280;40241;52.684;9.758;2022-10-15T10:36:33;100536.56;;;19.78;61.34
5651;BME280;40241;52.684;9.758;2022-10-15T10:39:01;100533.38;;;19.89;61.51
5651;BME280;40241;52.684;9.758;2022-10-15T10:44:40;100530.03;;;19.98;60.15
5651;BME280;40241;52.684;9.758;2022-10-15T10:47:14;100520.88;;;20.05;60.59
5651;BME280;40241;52.684;9.758;2022-10-15T10:49:54;100528.50;;;20.20;60.75
5651;BME280;40241;52.684;9.758;2022-10-15T10:52:30;100520.47;;;20.32;60.79
5651;BME280;40241;52.684;9.758;2022-10-15T10:57:41;100529.00;;;20.41;60.45
5651;BME280;40241;52.684;9.758;2022-10-15T11:00:13;100525.09;;;20.44;60.05
5651;BME280;40241;52.684;9.758;2022-10-15T11:02:40;100522.06;;;20.57;60.49
5651;BME280;40241;52.684;9.758;2022-10-15T11:05:09;100514.91;;;20.71;60.01
5651;BME280;40241;52.684;9.758;2022-10-15T11:10:46;100506.56;;;21.04;59.61
5651;BME280;40241;52.684;9.758;2022-10-15T11:15:56;100507.03;;;21.17;58.03
5651;BME280;40241;52.684;9.758;2022-10-15T11:18:52;100501.56;;;21.27;57.47
5651;BME280;40241;52.684;9.758;2022-10-15T11:21:57;100495.50;;;21.38;57.65
5651;BME280;40241;52.684;9.758;2022-10-15T11:24:28;100496.53;;;21.50;58.45
5651;BME280;40241;52.684;9.758;2022-10-15T11:27:35;100492.13;;;21.64;56.66
5651;BME280;40241;52.684;9.758;2022-10-15T11:30:29;100488.25;;;21.77;56.46
5651;BME280;40241;52.684;9.758;2022-10-15T11:33:23;100496.13;;;21.95;56.31
5651;BME280;40241;52.684;9.758;2022-10-15T11:39:02;100488.63;;;22.15;56.16
5651;BME280;40241;52.684;9.758;2022-10-15T11:46:50;100480.75;;;22.04;57.04
5651;BME280;40241;52.684;9.758;2022-10-15T11:55:22;100461.16;;;21.79;56.51
5651;BME280;40241;52.684;9.758;2022-10-15T11:57:56;100471.69;;;21.71;56.70
5651;BME280;40241;52.684;9.758;2022-10-15T12:00:47;100468.22;;;21.63;55.65
5651;BME280;40241;52.684;9.758;2022-10-15T12:03:20;100467.31;;;21.60;56.66
5651;BME280;40241;52.684;9.758;2022-10-15T12:05:53;100474.06;;;21.57;56.71
5651;BME280;40241;52.684;9.758;2022-10-15T12:08:19;100462.13;;;21.74;56.76
5651;BME280;40241;52.684;9.758;2022-10-15T12:16:53;100464.19;;;21.74;55.67
5651;BME280;40241;52.684;9.758;2022-10-15T12:19:23;100462.94;;;21.67;55.73
5651;BME280;40241;52.684;9.758;2022-10-15T12:27:21;100457.28;;;21.57;55.74
5651;BME280;40241;52.684;9.758;2022-10-15T12:30:09;100452.00;;;21.61;56.70
5651;BME280;40241;52.684;9.758;2022-10-15T12:32:41;100457.69;;;21.71;56.48
5651;BME280;40241;52.684;9.758;2022-10-15T12:35:32;100446.31;;;21.69;55.60
5651;BME280;40241;52.684;9.758;2022-10-15T12:38:10;100448.22;;;21.67;55.90
5651;BME280;40241;52.684;9.758;2022-10-15T12:40:38;100445.97;;;21.65;56.43
5651;BME280;40241;52.684;9.758;2022-10-15T12:43:15;100446.72;;;21.65;55.75
5651;BME280;40241;52.684;9.758;2022-10-15T12:46:11;100453.09;;;21.66;55.43
5651;BME280;40241;52.684;9.758;2022-10-15T12:48:44;100431.34;;;21.74;55.67
5651;BME280;40241;52.684;9.758;2022-10-15T12:53:49;100416.47;;;22.50;55.29
5651;BME280;40241;52.684;9.758;2022-10-15T12:58:56;100410.72;;;23.20;53.85
5651;BME280;40241;52.684;9.758;2022-10-15T13:09:04;100393.97;;;23.97;53.16
5651;BME280;40241;52.684;9.758;2022-10-15T13:11:34;100393.69;;;24.12;52.96
5651;BME280;40241;52.684;9.758;2022-10-15T13:14:49;100394.44;;;24.12;52.88
5651;BME280;40241;52.684;9.758;2022-10-15T13:16:47;100400.22;;;24.05;52.75
5651;BME280;40241;52.684;9.758;2022-10-15T13:19:36;100395.34;;;24.05;52.44
5651;BME280;40241;52.684;9.758;2022-10-15T13:22:05;100399.03;;;23.98;52.47
5651;BME280;40241;52.684;9.758;2022-10-15T13:24:43;100390.75;;;23.91;51.27
5651;BME280;40241;52.684;9.758;2022-10-15T13:27:33;100381.88;;;23.84;51.19
5651;BME280;40241;52.684;9.758;2022-10-15T13:30:01;100386.72;;;23.74;52.52
5651;BME280;40241;52.684;9.758;2022-10-15T13:32:30;100384.09;;;23.67;52.90
5651;BME280;40241;52.684;9.758;2022-10-15T13:34:57;100378.47;;;23.67;53.12
5651;BME280;40241;52.684;9.758;2022-10-15T13:37:29;100380.69;;;23.68;52.64
5651;BME280;40241;52.684;9.758;2022-10-15T13:39:56;100382.31;;;23.62;52.96
5651;BME280;40241;52.684;9.758;2022-10-15T13:42:23;100384.94;;;23.50;53.15
5651;BME280;40241;52.684;9.758;2022-10-15T13:44:57;100386.88;;;23.38;52.42
5651;BME280;40241;52.684;9.758;2022-10-15T13:53:11;100386.25;;;22.94;52.80
5651;BME280;40241;52.684;9.758;2022-10-15T13:55:42;100376.94;;;22.82;53.61
5651;BME280;40241;52.684;9.758;2022-10-15T13:58:18;100372.16;;;22.75;53.23
5651;BME280;40241;52.684;9.758;2022-10-15T14:00:54;100369.66;;;22.69;53.28
5651;BME280;40241;52.684;9.758;2022-10-15T14:03:23;100363.72;;;22.65;53.96
5651;BME280;40241;52.684;9.758;2022-10-15T14:05:51;100366.09;;;22.69;53.86
5651;BME280;40241;52.684;9.758;2022-10-15T14:08:47;100366.50;;;22.65;52.73
5651;BME280;40241;52.684;9.758;2022-10-15T14:11:13;100365.63;;;22.63;53.86
5651;BME280;40241;52.684;9.758;2022-10-15T14:13:46;100358.69;;;22.64;53.88
5651;BME280;40241;52.684;9.758;2022-10-15T14:16:27;100349.38;;;22.61;53.58
5651;BME280;40241;52.684;9.758;2022-10-15T14:21:32;100349.03;;;22.57;54.28
5651;BME280;40241;52.684;9.758;2022-10-15T14:26:28;100353.13;;;22.47;54.45
5651;BME280;40241;52.684;9.758;2022-10-15T14:28:53;100348.69;;;22.44;54.65
5651;BME280;40241;52.684;9.758;2022-10-15T14:31:32;100347.38;;;22.45;54.42
5651;BME280;40241;52.684;9.758;2022-10-15T14:33:57;100354.28;;;22.44;54.40
5651;BME280;40241;52.684;9.758;2022-10-15T14:36:25;100349.25;;;22.42;54.32
5651;BME280;40241;52.684;9.758;2022-10-15T14:38:52;100349.84;;;22.41;54.43
5651;BME280;40241;52.684;9.758;2022-10-15T14:41:22;100348.38;;;22.39;54.35
5651;BME280;40241;52.684;9.758;2022-10-15T14:44:01;100346.47;;;22.42;53.84
5651;BME280;40241;52.684;9.758;2022-10-15T14:46:35;100347.78;;;22.41;54.09
5651;BME280;40241;52.684;9.758;2022-10-15T14:49:01;100352.50;;;22.38;54.43
5651;BME280;40241;52.684;9.758;2022-10-15T14:51:27;100349.53;;;22.36;54.22
5651;BME280;40241;52.684;9.758;2022-10-15T14:53:53;100349.38;;;22.34;54.28
5651;BME280;40241;52.684;9.758;2022-10-15T14:56:22;100352.00;;;22.32;54.29
5651;BME280;40241;52.684;9.758;2022-10-15T14:58:53;100351.84;;;22.30;54.29